sensor_id;sensor_type;location;lat;lon;timestamp;pressure;altitude;pressure_sealevel;temperature;humidity
32761;BME280;19126;47.472;7.850;2023-05-20T00:01:51;96584.84;;;11.54;100.00
32761;BME280;19126;47.472;7.850;2023-05-20T00:04:19;96580.66;;;11.60;100.00
32761;BME280;19126;47.472;7.850;2023-05-20T00:06:46;96584.03;;;11.69;100.00
32761;BME280;19126;47.472;7.850;2023-05-20T00:09:14;96585.50;;;11.56;100.00
32761;BME280;19126;47.472;7.850;2023-05-20T00:11:42;96582.03;;;11.56;100.00
32761;BME280;19126;47.472;7.850;2023-05-20T00:14:09;96589.47;;;11.52;100.00
32761;BME280;19126;47.472;7.850;2023-05-20T00:16:37;96583.59;;;11.50;100.00
32761;BME280;19126;47.472;7.850;2023-05-20T00:19:05;96589.00;;;11.49;100.00
32761;BME280;19126;47.472;7.850;2023-05-20T00:21:32;96576.78;;;11.41;100.00
32761;BME280;19126;47.472;7.850;2023-05-20T00:23:59;96584.03;;;11.39;100.00
32761;BME280;19126;47.472;7.850;2023-05-20T00:26:27;96578.13;;;11.37;100.00
32761;BME280;19126;47.472;7.850;2023-05-20T00:28:55;96579.94;;;11.36;100.00
32761;BME280;19126;47.472;7.850;2023-05-20T00:31:22;96576.50;;;11.36;100.00
32761;BME280;19126;47.472;7.850;2023-05-20T00:33:51;96577.50;;;11.35;100.00
32761;BME280;19126;47.472;7.850;2023-05-20T00:36:18;96574.03;;;11.34;100.00
32761;BME280;19126;47.472;7.850;2023-05-20T00:38:46;96570.59;;;11.34;100.00
32761;BME280;19126;47.472;7.850;2023-05-20T00:41:13;96569.25;;;11.38;100.00
32761;BME280;19126;47.472;7.850;2023-05-20T00:43:40;96568.06;;;11.40;100.00
32761;BME280;19126;47.472;7.850;2023-05-20T00:46:08;96576.94;;;11.39;100.00
32761;BME280;19126;47.472;7.850;2023-05-20T00:48:40;96573.66;;;11.37;100.00
32761;BME280;19126;47.472;7.850;2023-05-20T00:51:11;96570.41;;;11.35;100.00
32761;BME280;19126;47.472;7.850;2023-05-20T00:53:39;96561.88;;;11.33;100.00
32761;BME280;19126;47.472;7.850;2023-05-20T00:56:08;96552.91;;;11.27;100.00
32761;BME280;19126;47.472;7.850;2023-05-20T00:58:36;96555.72;;;11.26;100.00
32761;BME280;19126;47.472;7.850;2023-05-20T01:01:04;96555.06;;;11.24;100.00
32761;BME280;19126;47.472;7.850;2023-05-20T01:03:32;96553.63;;;11.21;100.00
32761;BME280;19126;47.472;7.850;2023-05-20T01:05:59;96560.69;;;11.21;100.00
32761;BME280;19126;47.472;7.850;2023-05-20T01:08:28;96560.53;;;11.22;100.00
32761;BME280;19126;47.472;7.850;2023-05-20T01:11:02;96559.88;;;11.20;100.00
32761;BME280;19126;47.472;7.850;2023-05-20T01:13:38;96551.16;;;11.20;100.00
32761;BME280;19126;47.472;7.850;2023-05-20T01:16:08;96551.72;;;11.15;100.00
32761;BME280;19126;47.472;7.850;2023-05-20T01:18:38;96538.31;;;11.10;100.00
32761;BME280;19126;47.472;7.850;2023-05-20T01:21:11;96543.56;;;11.10;100.00
32761;BME280;19126;47.472;7.850;2023-05-20T01:23:41;96542.91;;;11.08;100.00
32761;BME280;19126;47.472;7.850;2023-05-20T01:26:09;96537.81;;;11.06;100.00
32761;BME280;19126;47.472;7.850;2023-05-20T01:28:38;96532.56;;;11.06;100.00
32761;BME280;19126;47.472;7.850;2023-05-20T01:31:13;96532.41;;;11.08;100.00
32761;BME280;19126;47.472;7.850;2023-05-20T01:33:42;96530.78;;;11.07;100.00
32761;BME280;19126;47.472;7.850;2023-05-20T01:36:10;96531.56;;;11.07;100.00
32761;BME280;19126;47.472;7.850;2023-05-20T01:38:40;96538.81;;;11.05;100.00
32761;BME280;19126;47.472;7.850;2023-05-20T01:41:08;96537.94;;;11.13;100.00
32761;BME280;19126;47.472;7.850;2023-05-20T01:43:38;96541.28;;;11.07;100.00
32761;BME280;19126;47.472;7.850;2023-05-20T01:46:06;96539.47;;;11.07;100.00
32761;BME280;19126;47.472;7.850;2023-05-20T01:48:33;96534.03;;;11.09;100.00
32761;BME280;19126;47.472;7.850;2023-05-20T01:51:01;96529.59;;;11.09;100.00
32761;BME280;19126;47.472;7.850;2023-05-20T01:53:28;96532.03;;;11.11;100.00
32761;BME280;19126;47.472;7.850;2023-05-20T01:55:57;96530.50;;;11.17;100.00
32761;BME280;19126;47.472;7.850;2023-05-20T01:58:24;96534.31;;;11.14;100.00
32761;BME280;19126;47.472;7.850;2023-05-20T02:00:51;96534.69;;;11.11;100.00
32761;BME280;19126;47.472;7.850;2023-05-20T02:03:18;96530.94;;;11.05;100.00
32761;BME280;19126;47.472;7.850;2023-05-20T02:05:46;96529.50;;;11.03;100.00
32761;BME280;19126;47.472;7.850;2023-05-20T02:08:13;96532.28;;;11.01;100.00
32761;BME280;19126;47.472;7.850;2023-05-20T02:10:40;96524.41;;;11.01;100.00
32761;BME280;19126;47.472;7.850;2023-05-20T02:13:09;96531.84;;;10.97;100.00
32761;BME280;19126;47.472;7.850;2023-05-20T02:15:40;96524.31;;;10.94;100.00
32761;BME280;19126;47.472;7.850;2023-05-20T02:18:07;96522.69;;;10.93;99.82
32761;BME280;19126;47.472;7.850;2023-05-20T02:20:35;96534.84;;;10.94;99.74
32761;BME280;19126;47.472;7.850;2023-05-20T02:23:02;96525.13;;;10.95;99.48
32761;BME280;19126;47.472;7.850;2023-05-20T02:25:30;96518.06;;;10.95;99.71
32761;BME280;19126;47.472;7.850;2023-05-20T02:27:58;96519.69;;;10.96;98.80
32761;BME280;19126;47.472;7.850;2023-05-20T02:30:26;96521.97;;;10.99;98.86
32761;BME280;19126;47.472;7.850;2023-05-20T02:32:53;96511.47;;;10.99;99.79
32761;BME280;19126;47.472;7.850;2023-05-20T02:35:21;96514.44;;;10.96;100.00
32761;BME280;19126;47.472;7.850;2023-05-20T02:37:48;96510.97;;;10.96;99.68
32761;BME280;19126;47.472;7.850;2023-05-20T02:40:16;96508.34;;;10.96;98.95
32761;BME280;19126;47.472;7.850;2023-05-20T02:42:43;96503.09;;;10.96;98.49
32761;BME280;19126;47.472;7.850;2023-05-20T02:45:11;96510.19;;;10.95;99.50
32761;BME280;19126;47.472;7.850;2023-05-20T02:47:40;96506.91;;;10.93;99.02
32761;BME280;19126;47.472;7.850;2023-05-20T02:50:07;96505.28;;;10.92;97.14
32761;BME280;19126;47.472;7.850;2023-05-20T02:52:35;96497.41;;;10.92;96.04
32761;BME280;19126;47.472;7.850;2023-05-20T02:55:02;96495.78;;;10.91;95.43
32761;BME280;19126;47.472;7.850;2023-05-20T02:57:29;96495.28;;;10.88;95.25
32761;BME280;19126;47.472;7.850;2023-05-20T02:59:58;96501.53;;;10.87;94.08
32761;BME280;19126;47.472;7.850;2023-05-20T03:02:26;96502.38;;;10.87;94.45
32761;BME280;19126;47.472;7.850;2023-05-20T03:04:54;96498.13;;;10.86;94.31
32761;BME280;19126;47.472;7.850;2023-05-20T03:07:21;96497.28;;;10.85;94.80
32761;BME280;19126;47.472;7.850;2023-05-20T03:09:49;96493.84;;;10.85;94.75
32761;BME280;19126;47.472;7.850;2023-05-20T03:12:16;96494.66;;;10.85;94.99
32761;BME280;19126;47.472;7.850;2023-05-20T03:14:43;96493.66;;;10.87;95.31
32761;BME280;19126;47.472;7.850;2023-05-20T03:17:11;96498.75;;;10.88;94.99
32761;BME280;19126;47.472;7.850;2023-05-20T03:19:38;96497.94;;;10.88;95.61
32761;BME280;19126;47.472;7.850;2023-05-20T03:22:06;96497.56;;;10.91;95.79
32761;BME280;19126;47.472;7.850;2023-05-20T03:24:34;96498.56;;;10.90;96.43
32761;BME280;19126;47.472;7.850;2023-05-20T03:27:01;96492.31;;;10.91;96.08
32761;BME280;19126;47.472;7.850;2023-05-20T03:29:28;96494.31;;;10.89;95.54
32761;BME280;19126;47.472;7.850;2023-05-20T03:31:56;96494.31;;;10.89;95.19
32761;BME280;19126;47.472;7.850;2023-05-20T03:34:23;96496.13;;;10.88;94.43
32761;BME280;19126;47.472;7.850;2023-05-20T03:36:53;96494.66;;;10.85;93.39
32761;BME280;19126;47.472;7.850;2023-05-20T03:39:21;96497.47;;;10.84;92.20
32761;BME280;19126;47.472;7.850;2023-05-20T03:41:49;96494.03;;;10.83;91.74
32761;BME280;19126;47.472;7.850;2023-05-20T03:44:16;96504.38;;;10.85;90.81
32761;BME280;19126;47.472;7.850;2023-05-20T03:46:44;96501.75;;;10.85;90.92
32761;BME280;19126;47.472;7.850;2023-05-20T03:49:11;96495.50;;;10.86;91.39
32761;BME280;19126;47.472;7.850;2023-05-20T03:51:38;96492.66;;;10.88;90.49
32761;BME280;19126;47.472;7.850;2023-05-20T03:54:06;96488.25;;;10.88;91.09
32761;BME280;19126;47.472;7.850;2023-05-20T03:56:34;96487.25;;;10.89;90.80
32761;BME280;19126;47.472;7.850;2023-05-20T03:59:02;96488.41;;;10.87;91.09
32761;BME280;19126;47.472;7.850;2023-05-20T04:01:29;96494.84;;;10.84;90.51
32761;BME280;19126;47.472;7.850;2023-05-20T04:03:56;96486.34;;;10.82;89.71
32761;BME280;19126;47.472;7.850;2023-05-20T04:06:24;96489.59;;;10.84;89.45
32761;BME280;19126;47.472;7.850;2023-05-20T04:08:51;96488.59;;;10.85;89.28
32761;BME280;19126;47.472;7.850;2023-05-20T04:11:19;96489.25;;;10.87;89.27
32761;BME280;19126;47.472;7.850;2023-05-20T04:13:48;96489.03;;;10.89;88.18
32761;BME280;19126;47.472;7.850;2023-05-20T04:16:15;96496.75;;;10.90;87.98
32761;BME280;19126;47.472;7.850;2023-05-20T04:18:42;96495.50;;;11.01;88.78
32761;BME280;19126;47.472;7.850;2023-05-20T04:21:10;96497.31;;;11.01;89.00
32761;BME280;19126;47.472;7.850;2023-05-20T04:23:38;96499.31;;;10.98;88.02
32761;BME280;19126;47.472;7.850;2023-05-20T04:26:05;96500.94;;;10.99;88.46
32761;BME280;19126;47.472;7.850;2023-05-20T04:28:32;96489.25;;;11.02;89.28
32761;BME280;19126;47.472;7.850;2023-05-20T04:31:04;96485.81;;;11.02;88.89
32761;BME280;19126;47.472;7.850;2023-05-20T04:33:31;96481.19;;;11.04;87.97
32761;BME280;19126;47.472;7.850;2023-05-20T04:36:05;96479.56;;;11.03;87.16
32761;BME280;19126;47.472;7.850;2023-05-20T04:38:33;96482.81;;;11.05;85.63
32761;BME280;19126;47.472;7.850;2023-05-20T04:41:04;96483.63;;;11.05;85.89
32761;BME280;19126;47.472;7.850;2023-05-20T04:43:32;96494.25;;;11.12;85.65
32761;BME280;19126;47.472;7.850;2023-05-20T04:45:59;96500.41;;;11.19;87.91
32761;BME280;19126;47.472;7.850;2023-05-20T04:48:32;96487.91;;;11.21;91.45
32761;BME280;19126;47.472;7.850;2023-05-20T04:50:59;96493.16;;;11.21;91.76
32761;BME280;19126;47.472;7.850;2023-05-20T04:53:27;96491.16;;;11.23;95.36
32761;BME280;19126;47.472;7.850;2023-05-20T04:55:55;96488.44;;;11.17;96.28
32761;BME280;19126;47.472;7.850;2023-05-20T04:58:23;96486.63;;;11.17;95.44
32761;BME280;19126;47.472;7.850;2023-05-20T05:00:51;96485.63;;;11.18;95.20
32761;BME280;19126;47.472;7.850;2023-05-20T05:03:19;96487.06;;;11.21;94.14
32761;BME280;19126;47.472;7.850;2023-05-20T05:05:47;96488.97;;;11.27;93.52
32761;BME280;19126;47.472;7.850;2023-05-20T05:08:14;96489.44;;;11.31;94.97
32761;BME280;19126;47.472;7.850;2023-05-20T05:10:44;96482.34;;;11.31;96.04
32761;BME280;19126;47.472;7.850;2023-05-20T05:13:11;96477.00;;;11.39;98.33
32761;BME280;19126;47.472;7.850;2023-05-20T05:15:38;96472.75;;;11.38;100.00
32761;BME280;19126;47.472;7.850;2023-05-20T05:18:06;96474.72;;;11.36;100.00
32761;BME280;19126;47.472;7.850;2023-05-20T05:20:33;96473.00;;;11.43;100.00
32761;BME280;19126;47.472;7.850;2023-05-20T05:23:02;96477.91;;;11.47;100.00
32761;BME280;19126;47.472;7.850;2023-05-20T05:25:29;96469.94;;;11.40;100.00
32761;BME280;19126;47.472;7.850;2023-05-20T05:27:57;96461.84;;;11.41;100.00
32761;BME280;19126;47.472;7.850;2023-05-20T05:30:24;96464.94;;;11.45;100.00
32761;BME280;19126;47.472;7.850;2023-05-20T05:32:52;96463.38;;;11.51;100.00
32761;BME280;19126;47.472;7.850;2023-05-20T05:35:19;96461.00;;;11.56;100.00
32761;BME280;19126;47.472;7.850;2023-05-20T05:37:47;96460.09;;;11.64;100.00
32761;BME280;19126;47.472;7.850;2023-05-20T05:40:16;96463.72;;;11.63;100.00
32761;BME280;19126;47.472;7.850;2023-05-20T05:42:43;96466.16;;;11.64;100.00
32761;BME280;19126;47.472;7.850;2023-05-20T05:45:10;96457.38;;;11.72;100.00
32761;BME280;19126;47.472;7.850;2023-05-20T05:47:38;96471.69;;;11.69;100.00
32761;BME280;19126;47.472;7.850;2023-05-20T05:50:05;96468.06;;;11.70;100.00
32761;BME280;19126;47.472;7.850;2023-05-20T05:52:33;96462.63;;;11.72;100.00
32761;BME280;19126;47.472;7.850;2023-05-20T05:55:00;96464.25;;;11.73;100.00
32761;BME280;19126;47.472;7.850;2023-05-20T05:57:29;96464.44;;;11.71;100.00
32761;BME280;19126;47.472;7.850;2023-05-20T05:59:56;96473.16;;;11.72;100.00
32761;BME280;19126;47.472;7.850;2023-05-20T06:02:23;96473.41;;;11.77;100.00
32761;BME280;19126;47.472;7.850;2023-05-20T06:04:51;96474.47;;;11.83;100.00
32761;BME280;19126;47.472;7.850;2023-05-20T06:07:18;96476.72;;;11.86;100.00
32761;BME280;19126;47.472;7.850;2023-05-20T06:09:45;96472.47;;;11.85;100.00
32761;BME280;19126;47.472;7.850;2023-05-20T06:12:13;96474.66;;;11.81;100.00
32761;BME280;19126;47.472;7.850;2023-05-20T06:14:41;96470.41;;;11.80;100.00
32761;BME280;19126;47.472;7.850;2023-05-20T06:17:08;96465.56;;;11.84;100.00
32761;BME280;19126;47.472;7.850;2023-05-20T06:19:36;96463.19;;;11.89;100.00
32761;BME280;19126;47.472;7.850;2023-05-20T06:22:03;96458.94;;;12.03;100.00
32761;BME280;19126;47.472;7.850;2023-05-20T06:24:33;96457.81;;;12.12;100.00
32761;BME280;19126;47.472;7.850;2023-05-20T06:27:00;96458.69;;;12.20;100.00
32761;BME280;19126;47.472;7.850;2023-05-20T06:29:28;96461.56;;;12.25;100.00
32761;BME280;19126;47.472;7.850;2023-05-20T06:31:57;96465.78;;;12.41;100.00
32761;BME280;19126;47.472;7.850;2023-05-20T06:34:24;96459.91;;;12.45;100.00
32761;BME280;19126;47.472;7.850;2023-05-20T06:36:52;96456.09;;;12.48;100.00
32761;BME280;19126;47.472;7.850;2023-05-20T06:39:20;96456.53;;;12.52;100.00
32761;BME280;19126;47.472;7.850;2023-05-20T06:41:48;96454.50;;;12.54;100.00
32761;BME280;19126;47.472;7.850;2023-05-20T06:44:17;96447.69;;;12.59;100.00
32761;BME280;19126;47.472;7.850;2023-05-20T06:46:45;96443.44;;;12.65;100.00
32761;BME280;19126;47.472;7.850;2023-05-20T06:49:13;96440.72;;;12.80;100.00
32761;BME280;19126;47.472;7.850;2023-05-20T06:51:41;96431.56;;;12.76;100.00
32761;BME280;19126;47.472;7.850;2023-05-20T06:54:09;96426.34;;;12.83;100.00
32761;BME280;19126;47.472;7.850;2023-05-20T06:56:36;96431.47;;;12.91;100.00
32761;BME280;19126;47.472;7.850;2023-05-20T06:59:03;96429.44;;;12.93;100.00
32761;BME280;19126;47.472;7.850;2023-05-20T07:01:30;96431.31;;;12.99;100.00
32761;BME280;19126;47.472;7.850;2023-05-20T07:03:58;96435.19;;;13.03;100.00
32761;BME280;19126;47.472;7.850;2023-05-20T07:06:26;96426.47;;;13.03;100.00
32761;BME280;19126;47.472;7.850;2023-05-20T07:08:55;96428.31;;;13.09;100.00
32761;BME280;19126;47.472;7.850;2023-05-20T07:11:22;96433.63;;;13.16;100.00
32761;BME280;19126;47.472;7.850;2023-05-20T07:13:49;96426.75;;;13.22;100.00
32761;BME280;19126;47.472;7.850;2023-05-20T07:16:18;96423.56;;;13.26;100.00
32761;BME280;19126;47.472;7.850;2023-05-20T07:18:45;96423.97;;;13.30;100.00
32761;BME280;19126;47.472;7.850;2023-05-20T07:21:12;96423.88;;;13.45;100.00
32761;BME280;19126;47.472;7.850;2023-05-20T07:23:41;96432.56;;;13.45;100.00
32761;BME280;19126;47.472;7.850;2023-05-20T07:26:08;96422.63;;;13.47;100.00
32761;BME280;19126;47.472;7.850;2023-05-20T07:28:36;96423.69;;;13.53;100.00
32761;BME280;19126;47.472;7.850;2023-05-20T07:31:04;96421.06;;;13.60;100.00
32761;BME280;19126;47.472;7.850;2023-05-20T07:33:31;96424.72;;;13.59;100.00
32761;BME280;19126;47.472;7.850;2023-05-20T07:35:59;96422.91;;;13.66;100.00
32761;BME280;19126;47.472;7.850;2023-05-20T07:38:26;96429.41;;;13.70;100.00
32761;BME280;19126;47.472;7.850;2023-05-20T07:40:55;96426.94;;;13.62;100.00
32761;BME280;19126;47.472;7.850;2023-05-20T07:43:22;96416.59;;;13.60;100.00
32761;BME280;19126;47.472;7.850;2023-05-20T07:45:49;96422.50;;;13.69;100.00
32761;BME280;19126;47.472;7.850;2023-05-20T07:48:16;96429.63;;;13.69;100.00
32761;BME280;19126;47.472;7.850;2023-05-20T07:50:44;96420.88;;;13.68;100.00
32761;BME280;19126;47.472;7.850;2023-05-20T07:53:11;96421.09;;;13.67;100.00
32761;BME280;19126;47.472;7.850;2023-05-20T07:55:39;96422.31;;;13.71;100.00
32761;BME280;19126;47.472;7.850;2023-05-20T07:58:07;96422.72;;;13.74;100.00
32761;BME280;19126;47.472;7.850;2023-05-20T08:00:34;96415.19;;;13.71;100.00
32761;BME280;19126;47.472;7.850;2023-05-20T08:03:02;96419.69;;;13.71;100.00
32761;BME280;19126;47.472;7.850;2023-05-20T08:05:29;96415.81;;;13.73;100.00
32761;BME280;19126;47.472;7.850;2023-05-20T08:07:56;96414.63;;;13.76;100.00
32761;BME280;19126;47.472;7.850;2023-05-20T08:10:24;96423.16;;;13.78;100.00
32761;BME280;19126;47.472;7.850;2023-05-20T08:12:51;96416.81;;;13.72;100.00
32761;BME280;19126;47.472;7.850;2023-05-20T08:15:20;96420.28;;;13.73;100.00
32761;BME280;19126;47.472;7.850;2023-05-20T08:17:47;96420.09;;;13.74;100.00
32761;BME280;19126;47.472;7.850;2023-05-20T08:20:14;96411.53;;;13.72;100.00
32761;BME280;19126;47.472;7.850;2023-05-20T08:22:41;96413.00;;;13.75;100.00
32761;BME280;19126;47.472;7.850;2023-05-20T08:25:09;96413.59;;;13.77;100.00
32761;BME280;19126;47.472;7.850;2023-05-20T08:27:36;96414.00;;;13.81;100.00
32761;BME280;19126;47.472;7.850;2023-05-20T08:30:05;96408.97;;;13.92;100.00
32761;BME280;19126;47.472;7.850;2023-05-20T08:32:36;96407.97;;;14.07;100.00
32761;BME280;19126;47.472;7.850;2023-05-20T08:35:05;96409.78;;;14.20;100.00
32761;BME280;19126;47.472;7.850;2023-05-20T08:37:33;96418.75;;;14.39;100.00
32761;BME280;19126;47.472;7.850;2023-05-20T08:40:00;96406.75;;;14.50;100.00
32761;BME280;19126;47.472;7.850;2023-05-20T08:42:28;96409.22;;;14.58;100.00
32761;BME280;19126;47.472;7.850;2023-05-20T08:44:55;96413.44;;;14.66;100.00
32761;BME280;19126;47.472;7.850;2023-05-20T08:47:25;96410.63;;;14.68;100.00
32761;BME280;19126;47.472;7.850;2023-05-20T08:49:54;96410.41;;;14.62;100.00
32761;BME280;19126;47.472;7.850;2023-05-20T08:52:21;96413.47;;;14.59;100.00
32761;BME280;19126;47.472;7.850;2023-05-20T08:54:49;96409.22;;;14.58;100.00
32761;BME280;19126;47.472;7.850;2023-05-20T08:57:17;96402.69;;;14.47;100.00
32761;BME280;19126;47.472;7.850;2023-05-20T08:59:45;96401.66;;;14.55;100.00
32761;BME280;19126;47.472;7.850;2023-05-20T09:02:13;96397.19;;;14.69;100.00
32761;BME280;19126;47.472;7.850;2023-05-20T09:04:41;96399.84;;;14.83;100.00
32761;BME280;19126;47.472;7.850;2023-05-20T09:07:10;96397.00;;;14.84;100.00
32761;BME280;19126;47.472;7.850;2023-05-20T09:09:37;96398.19;;;14.95;100.00
32761;BME280;19126;47.472;7.850;2023-05-20T09:12:06;96403.25;;;15.03;100.00
32761;BME280;19126;47.472;7.850;2023-05-20T09:14:33;96400.97;;;15.20;100.00
32761;BME280;19126;47.472;7.850;2023-05-20T09:17:00;96410.94;;;15.18;100.00
32761;BME280;19126;47.472;7.850;2023-05-20T09:19:28;96406.06;;;15.15;100.00
32761;BME280;19126;47.472;7.850;2023-05-20T09:21:55;96409.09;;;15.19;100.00
32761;BME280;19126;47.472;7.850;2023-05-20T09:24:25;96402.00;;;15.13;100.00
32761;BME280;19126;47.472;7.850;2023-05-20T09:26:52;96405.84;;;15.17;100.00
32761;BME280;19126;47.472;7.850;2023-05-20T09:29:19;96403.00;;;15.18;100.00
32761;BME280;19126;47.472;7.850;2023-05-20T09:31:47;96398.75;;;15.11;100.00
32761;BME280;19126;47.472;7.850;2023-05-20T09:34:15;96404.84;;;15.11;100.00
32761;BME280;19126;47.472;7.850;2023-05-20T09:36:43;96389.25;;;14.83;100.00
32761;BME280;19126;47.472;7.850;2023-05-20T09:39:14;96396.97;;;14.91;100.00
32761;BME280;19126;47.472;7.850;2023-05-20T09:41:51;96396.97;;;14.91;100.00
32761;BME280;19126;47.472;7.850;2023-05-20T09:44:21;96394.31;;;14.91;100.00
32761;BME280;19126;47.472;7.850;2023-05-20T09:46:50;96390.06;;;14.76;100.00
32761;BME280;19126;47.472;7.850;2023-05-20T09:49:18;96401.66;;;14.89;100.00
32761;BME280;19126;47.472;7.850;2023-05-20T09:51:47;96407.34;;;14.92;100.00
32761;BME280;19126;47.472;7.850;2023-05-20T09:54:18;96402.41;;;15.09;100.00
32761;BME280;19126;47.472;7.850;2023-05-20T09:56:47;96402.22;;;15.11;100.00
32761;BME280;19126;47.472;7.850;2023-05-20T09:59:15;96403.63;;;15.14;100.00
32761;BME280;19126;47.472;7.850;2023-05-20T10:01:43;96406.28;;;15.07;100.00
32761;BME280;19126;47.472;7.850;2023-05-20T10:04:12;96397.50;;;15.20;100.00
32761;BME280;19126;47.472;7.850;2023-05-20T10:06:59;96403.56;;;15.27;100.00
32761;BME280;19126;47.472;7.850;2023-05-20T10:09:42;96400.31;;;15.25;100.00
32761;BME280;19126;47.472;7.850;2023-05-20T10:12:24;96389.97;;;15.23;100.00
32761;BME280;19126;47.472;7.850;2023-05-20T10:15:11;96392.97;;;15.27;100.00
32761;BME280;19126;47.472;7.850;2023-05-20T10:17:52;96397.47;;;15.27;100.00
32761;BME280;19126;47.472;7.850;2023-05-20T10:20:26;96397.25;;;15.28;100.00
32761;BME280;19126;47.472;7.850;2023-05-20T10:22:57;96400.34;;;15.18;100.00
32761;BME280;19126;47.472;7.850;2023-05-20T10:25:27;96386.94;;;15.13;100.00
32761;BME280;19126;47.472;7.850;2023-05-20T10:28:07;96383.88;;;15.16;100.00
32761;BME280;19126;47.472;7.850;2023-05-20T10:30:36;96379.78;;;15.20;100.00
32761;BME280;19126;47.472;7.850;2023-05-20T10:33:04;96382.22;;;15.22;100.00
32761;BME280;19126;47.472;7.850;2023-05-20T10:35:32;96383.41;;;15.26;100.00
32761;BME280;19126;47.472;7.850;2023-05-20T10:38:10;96383.84;;;15.23;100.00
32761;BME280;19126;47.472;7.850;2023-05-20T10:40:38;96379.75;;;15.27;100.00
32761;BME280;19126;47.472;7.850;2023-05-20T10:43:11;96373.25;;;15.23;100.00
32761;BME280;19126;47.472;7.850;2023-05-20T10:45:49;96372.41;;;15.36;100.00
32761;BME280;19126;47.472;7.850;2023-05-20T10:48:23;96377.66;;;15.43;100.00
32761;BME280;19126;47.472;7.850;2023-05-20T10:50:54;96373.97;;;15.44;100.00
32761;BME280;19126;47.472;7.850;2023-05-20T10:53:24;96375.16;;;15.55;100.00
32761;BME280;19126;47.472;7.850;2023-05-20T10:55:53;96383.81;;;15.68;100.00
32761;BME280;19126;47.472;7.850;2023-05-20T10:58:23;96381.94;;;15.76;100.00
32761;BME280;19126;47.472;7.850;2023-05-20T11:00:53;96386.78;;;15.86;100.00
32761;BME280;19126;47.472;7.850;2023-05-20T11:03:21;96385.34;;;15.96;100.00
32761;BME280;19126;47.472;7.850;2023-05-20T11:05:51;96378.63;;;15.94;100.00
32761;BME280;19126;47.472;7.850;2023-05-20T11:08:18;96375.44;;;16.10;100.00
32761;BME280;19126;47.472;7.850;2023-05-20T11:10:46;96374.53;;;16.23;100.00
32761;BME280;19126;47.472;7.850;2023-05-20T11:13:17;96369.41;;;16.29;99.85
32761;BME280;19126;47.472;7.850;2023-05-20T11:15:48;96371.78;;;16.11;100.00
32761;BME280;19126;47.472;7.850;2023-05-20T11:18:15;96370.41;;;16.02;99.32
32761;BME280;19126;47.472;7.850;2023-05-20T11:20:44;96369.97;;;16.05;96.58
32761;BME280;19126;47.472;7.850;2023-05-20T11:23:13;96372.84;;;16.04;97.31
32761;BME280;19126;47.472;7.850;2023-05-20T11:25:41;96373.22;;;16.07;99.81
32761;BME280;19126;47.472;7.850;2023-05-20T11:28:11;96372.03;;;16.03;100.00
32761;BME280;19126;47.472;7.850;2023-05-20T11:30:39;96370.41;;;16.02;99.03
32761;BME280;19126;47.472;7.850;2023-05-20T11:33:11;96373.78;;;16.16;97.82
32761;BME280;19126;47.472;7.850;2023-05-20T11:35:45;96365.50;;;16.31;98.69
32761;BME280;19126;47.472;7.850;2023-05-20T11:38:13;96350.59;;;16.55;97.58
32761;BME280;19126;47.472;7.850;2023-05-20T11:40:43;96346.28;;;16.98;98.76
32761;BME280;19126;47.472;7.850;2023-05-20T11:43:12;96337.16;;;17.13;95.22
32761;BME280;19126;47.472;7.850;2023-05-20T11:45:41;96340.41;;;17.46;93.09
32761;BME280;19126;47.472;7.850;2023-05-20T11:48:11;96339.00;;;17.73;87.36
32761;BME280;19126;47.472;7.850;2023-05-20T11:50:44;96336.47;;;17.79;88.61
32761;BME280;19126;47.472;7.850;2023-05-20T11:53:15;96334.78;;;17.84;90.78
32761;BME280;19126;47.472;7.850;2023-05-20T11:55:48;96342.88;;;17.90;87.81
32761;BME280;19126;47.472;7.850;2023-05-20T11:58:17;96333.88;;;17.91;87.62
32761;BME280;19126;47.472;7.850;2023-05-20T12:00:45;96339.94;;;18.10;87.08
32761;BME280;19126;47.472;7.850;2023-05-20T12:03:14;96336.94;;;18.30;87.26
32761;BME280;19126;47.472;7.850;2023-05-20T12:05:42;96323.75;;;18.59;87.83
32761;BME280;19126;47.472;7.850;2023-05-20T12:08:09;96321.53;;;18.80;84.04
32761;BME280;19126;47.472;7.850;2023-05-20T12:10:36;96320.25;;;19.06;84.83
32761;BME280;19126;47.472;7.850;2023-05-20T12:13:04;96327.59;;;19.28;80.89
32761;BME280;19126;47.472;7.850;2023-05-20T12:15:33;96327.78;;;19.38;76.27
32761;BME280;19126;47.472;7.850;2023-05-20T12:18:01;96335.28;;;19.41;74.97
32761;BME280;19126;47.472;7.850;2023-05-20T12:20:30;96321.34;;;19.51;75.07
32761;BME280;19126;47.472;7.850;2023-05-20T12:22:59;96320.47;;;19.62;74.15
32761;BME280;19126;47.472;7.850;2023-05-20T12:25:26;96312.88;;;19.54;74.12
32761;BME280;19126;47.472;7.850;2023-05-20T12:27:55;96321.97;;;19.70;74.69
32761;BME280;19126;47.472;7.850;2023-05-20T12:30:23;96315.06;;;19.57;71.99
32761;BME280;19126;47.472;7.850;2023-05-20T12:32:51;96318.00;;;19.44;73.97
32761;BME280;19126;47.472;7.850;2023-05-20T12:35:25;96316.75;;;19.63;75.76
32761;BME280;19126;47.472;7.850;2023-05-20T12:38:03;96311.78;;;19.67;74.86
32761;BME280;19126;47.472;7.850;2023-05-20T12:40:30;96319.53;;;19.69;74.06
32761;BME280;19126;47.472;7.850;2023-05-20T12:42:59;96311.91;;;19.43;71.85
32761;BME280;19126;47.472;7.850;2023-05-20T12:45:27;96311.72;;;19.33;73.92
32761;BME280;19126;47.472;7.850;2023-05-20T12:47:54;96306.31;;;19.16;73.76
32761;BME280;19126;47.472;7.850;2023-05-20T12:50:21;96306.41;;;19.21;74.64
32761;BME280;19126;47.472;7.850;2023-05-20T12:52:49;96305.16;;;19.12;75.12
32761;BME280;19126;47.472;7.850;2023-05-20T12:55:17;96300.88;;;19.11;77.77
32761;BME280;19126;47.472;7.850;2023-05-20T12:57:46;96307.25;;;19.10;80.42
32761;BME280;19126;47.472;7.850;2023-05-20T13:00:14;96302.38;;;19.18;79.53